sensor_id;sensor_type;location;lat;lon;timestamp;P1;durP1;ratioP1;P2;durP2;ratioP2
16735;SDS011;17990;49.548;9.730;2022-10-16T00:01:06;3.93;;;1.93;;
16735;SDS011;17990;49.548;9.730;2022-10-16T00:03:36;2.60;;;1.90;;
16735;SDS011;17990;49.548;9.730;2022-10-16T00:06:03;2.97;;;1.33;;
16735;SDS011;17990;49.548;9.730;2022-10-16T00:08:31;5.63;;;2.10;;
16735;SDS011;17990;49.548;9.730;2022-10-16T00:11:01;5.83;;;2.13;;
16735;SDS011;17990;49.548;9.730;2022-10-16T00:13:32;1.90;;;1.23;;
16735;SDS011;17990;49.548;9.730;2022-10-16T00:16:01;3.57;;;1.33;;
16735;SDS011;17990;49.548;9.730;2022-10-16T00:18:29;6.57;;;2.23;;
16735;SDS011;17990;49.548;9.730;2022-10-16T00:21:00;4.33;;;3.10;;
16735;SDS011;17990;49.548;9.730;2022-10-16T00:23:29;8.73;;;4.40;;
16735;SDS011;17990;49.548;9.730;2022-10-16T00:25:56;4.17;;;2.90;;
16735;SDS011;17990;49.548;9.730;2022-10-16T00:28:26;5.17;;;2.53;;
16735;SDS011;17990;49.548;9.730;2022-10-16T00:30:54;4.87;;;2.00;;
16735;SDS011;17990;49.548;9.730;2022-10-16T00:33:21;2.20;;;1.60;;
16735;SDS011;17990;49.548;9.730;2022-10-16T00:35:49;6.00;;;2.47;;
16735;SDS011;17990;49.548;9.730;2022-10-16T00:38:16;5.37;;;2.10;;
16735;SDS011;17990;49.548;9.730;2022-10-16T00:40:43;5.13;;;1.90;;
16735;SDS011;17990;49.548;9.730;2022-10-16T00:43:14;5.30;;;1.77;;
16735;SDS011;17990;49.548;9.730;2022-10-16T00:46:04;2.83;;;1.53;;
16735;SDS011;17990;49.548;9.730;2022-10-16T00:48:37;3.87;;;1.40;;
16735;SDS011;17990;49.548;9.730;2022-10-16T00:51:04;6.73;;;1.93;;
16735;SDS011;17990;49.548;9.730;2022-10-16T00:53:33;3.50;;;1.30;;
16735;SDS011;17990;49.548;9.730;2022-10-16T00:56:01;3.40;;;1.50;;
16735;SDS011;17990;49.548;9.730;2022-10-16T00:58:28;4.73;;;1.47;;
16735;SDS011;17990;49.548;9.730;2022-10-16T01:00:57;2.73;;;1.33;;
16735;SDS011;17990;49.548;9.730;2022-10-16T01:03:25;1.80;;;1.47;;
16735;SDS011;17990;49.548;9.730;2022-10-16T01:05:58;5.60;;;1.83;;
16735;SDS011;17990;49.548;9.730;2022-10-16T01:08:37;4.50;;;1.33;;
16735;SDS011;17990;49.548;9.730;2022-10-16T01:11:12;3.80;;;1.57;;
16735;SDS011;17990;49.548;9.730;2022-10-16T01:13:51;4.43;;;1.23;;
16735;SDS011;17990;49.548;9.730;2022-10-16T01:16:24;2.47;;;1.40;;
16735;SDS011;17990;49.548;9.730;2022-10-16T01:19:02;4.13;;;1.80;;
16735;SDS011;17990;49.548;9.730;2022-10-16T01:21:36;3.63;;;1.90;;
16735;SDS011;17990;49.548;9.730;2022-10-16T01:24:08;5.40;;;3.07;;
16735;SDS011;17990;49.548;9.730;2022-10-16T01:26:49;2.63;;;1.47;;
16735;SDS011;17990;49.548;9.730;2022-10-16T01:29:37;3.07;;;1.30;;
16735;SDS011;17990;49.548;9.730;2022-10-16T01:32:15;4.27;;;1.50;;
16735;SDS011;17990;49.548;9.730;2022-10-16T01:34:49;2.77;;;1.40;;
16735;SDS011;17990;49.548;9.730;2022-10-16T01:37:22;5.03;;;2.63;;
16735;SDS011;17990;49.548;9.730;2022-10-16T01:39:58;5.93;;;2.80;;
16735;SDS011;17990;49.548;9.730;2022-10-16T01:42:28;6.53;;;3.07;;
16735;SDS011;17990;49.548;9.730;2022-10-16T01:45:01;2.93;;;1.80;;
16735;SDS011;17990;49.548;9.730;2022-10-16T01:47:32;4.50;;;1.73;;
16735;SDS011;17990;49.548;9.730;2022-10-16T01:50:02;2.23;;;1.40;;
16735;SDS011;17990;49.548;9.730;2022-10-16T01:52:32;2.03;;;1.40;;
16735;SDS011;17990;49.548;9.730;2022-10-16T01:55:03;2.17;;;1.37;;
16735;SDS011;17990;49.548;9.730;2022-10-16T01:57:37;3.90;;;1.40;;
16735;SDS011;17990;49.548;9.730;2022-10-16T02:00:09;10.27;;;2.40;;
16735;SDS011;17990;49.548;9.730;2022-10-16T02:02:39;4.13;;;1.60;;
16735;SDS011;17990;49.548;9.730;2022-10-16T02:05:10;5.03;;;1.13;;
16735;SDS011;17990;49.548;9.730;2022-10-16T02:07:45;4.83;;;1.33;;
16735;SDS011;17990;49.548;9.730;2022-10-16T02:10:12;4.63;;;1.33;;
16735;SDS011;17990;49.548;9.730;2022-10-16T02:12:41;3.37;;;1.07;;
16735;SDS011;17990;49.548;9.730;2022-10-16T02:15:12;2.17;;;1.10;;
16735;SDS011;17990;49.548;9.730;2022-10-16T02:17:39;4.20;;;1.43;;
16735;SDS011;17990;49.548;9.730;2022-10-16T02:20:06;1.63;;;1.30;;
16735;SDS011;17990;49.548;9.730;2022-10-16T02:22:35;1.83;;;1.40;;
16735;SDS011;17990;49.548;9.730;2022-10-16T02:25:06;4.73;;;1.30;;
16735;SDS011;17990;49.548;9.730;2022-10-16T02:27:38;3.93;;;1.13;;
16735;SDS011;17990;49.548;9.730;2022-10-16T02:30:16;4.03;;;2.00;;
16735;SDS011;17990;49.548;9.730;2022-10-16T02:32:49;6.33;;;3.60;;
16735;SDS011;17990;49.548;9.730;2022-10-16T02:35:18;5.03;;;3.60;;
16735;SDS011;17990;49.548;9.730;2022-10-16T02:37:49;5.87;;;2.23;;
16735;SDS011;17990;49.548;9.730;2022-10-16T02:40:17;4.77;;;3.70;;
16735;SDS011;17990;49.548;9.730;2022-10-16T02:42:49;5.17;;;3.37;;
16735;SDS011;17990;49.548;9.730;2022-10-16T02:45:17;2.80;;;2.07;;
16735;SDS011;17990;49.548;9.730;2022-10-16T02:47:44;6.93;;;2.30;;
16735;SDS011;17990;49.548;9.730;2022-10-16T02:50:11;7.17;;;1.73;;
16735;SDS011;17990;49.548;9.730;2022-10-16T02:52:38;5.50;;;1.90;;
16735;SDS011;17990;49.548;9.730;2022-10-16T02:55:05;5.73;;;1.67;;
16735;SDS011;17990;49.548;9.730;2022-10-16T02:57:33;2.97;;;1.50;;
16735;SDS011;17990;49.548;9.730;2022-10-16T03:00:04;4.33;;;1.20;;
16735;SDS011;17990;49.548;9.730;2022-10-16T03:02:32;2.87;;;1.40;;
16735;SDS011;17990;49.548;9.730;2022-10-16T03:04:59;6.33;;;1.63;;
16735;SDS011;17990;49.548;9.730;2022-10-16T03:07:26;2.10;;;1.20;;
16735;SDS011;17990;49.548;9.730;2022-10-16T03:09:53;9.13;;;2.30;;
16735;SDS011;17990;49.548;9.730;2022-10-16T03:12:20;4.23;;;2.00;;
16735;SDS011;17990;49.548;9.730;2022-10-16T03:14:47;7.37;;;3.60;;
16735;SDS011;17990;49.548;9.730;2022-10-16T03:17:15;4.53;;;1.47;;
16735;SDS011;17990;49.548;9.730;2022-10-16T03:19:42;6.37;;;1.50;;
16735;SDS011;17990;49.548;9.730;2022-10-16T03:22:09;3.03;;;1.30;;
16735;SDS011;17990;49.548;9.730;2022-10-16T03:24:36;2.40;;;0.90;;
16735;SDS011;17990;49.548;9.730;2022-10-16T03:27:03;4.40;;;1.20;;
16735;SDS011;17990;49.548;9.730;2022-10-16T03:29:30;3.60;;;1.47;;
16735;SDS011;17990;49.548;9.730;2022-10-16T03:31:58;2.83;;;1.53;;
16735;SDS011;17990;49.548;9.730;2022-10-16T03:34:26;3.03;;;1.13;;
16735;SDS011;17990;49.548;9.730;2022-10-16T03:36:53;2.10;;;1.37;;
16735;SDS011;17990;49.548;9.730;2022-10-16T03:39:20;8.53;;;1.30;;
16735;SDS011;17990;49.548;9.730;2022-10-16T03:41:47;6.10;;;1.73;;
16735;SDS011;17990;49.548;9.730;2022-10-16T03:44:14;3.37;;;1.33;;
16735;SDS011;17990;49.548;9.730;2022-10-16T03:46:41;8.90;;;1.33;;
16735;SDS011;17990;49.548;9.730;2022-10-16T03:49:08;5.83;;;1.60;;
16735;SDS011;17990;49.548;9.730;2022-10-16T03:51:37;3.20;;;1.40;;
16735;SDS011;17990;49.548;9.730;2022-10-16T03:54:04;2.23;;;1.20;;
16735;SDS011;17990;49.548;9.730;2022-10-16T03:56:30;3.97;;;1.27;;
16735;SDS011;17990;49.548;9.730;2022-10-16T03:58:57;3.57;;;1.20;;
16735;SDS011;17990;49.548;9.730;2022-10-16T04:01:24;11.70;;;1.70;;
16735;SDS011;17990;49.548;9.730;2022-10-16T04:03:51;4.90;;;1.67;;
16735;SDS011;17990;49.548;9.730;2022-10-16T04:06:18;6.10;;;1.70;;
16735;SDS011;17990;49.548;9.730;2022-10-16T04:08:46;5.77;;;1.80;;
16735;SDS011;17990;49.548;9.730;2022-10-16T04:11:13;2.90;;;1.53;;
16735;SDS011;17990;49.548;9.730;2022-10-16T04:13:40;4.93;;;3.07;;
16735;SDS011;17990;49.548;9.730;2022-10-16T04:16:07;7.13;;;2.50;;
16735;SDS011;17990;49.548;9.730;2022-10-16T04:18:34;4.17;;;2.57;;
16735;SDS011;17990;49.548;9.730;2022-10-16T04:21:02;3.50;;;2.13;;
16735;SDS011;17990;49.548;9.730;2022-10-16T04:23:29;4.10;;;1.57;;
16735;SDS011;17990;49.548;9.730;2022-10-16T04:25:58;4.23;;;1.70;;
16735;SDS011;17990;49.548;9.730;2022-10-16T04:28:26;3.70;;;1.90;;
16735;SDS011;17990;49.548;9.730;2022-10-16T04:30:53;5.03;;;1.73;;
16735;SDS011;17990;49.548;9.730;2022-10-16T04:33:20;2.93;;;1.53;;
16735;SDS011;17990;49.548;9.730;2022-10-16T04:35:47;5.50;;;1.70;;
16735;SDS011;17990;49.548;9.730;2022-10-16T04:38:14;5.00;;;1.70;;
16735;SDS011;17990;49.548;9.730;2022-10-16T04:40:42;3.67;;;1.97;;
16735;SDS011;17990;49.548;9.730;2022-10-16T04:43:10;5.03;;;2.30;;
16735;SDS011;17990;49.548;9.730;2022-10-16T04:45:37;10.03;;;3.83;;
16735;SDS011;17990;49.548;9.730;2022-10-16T04:48:04;5.73;;;3.33;;
16735;SDS011;17990;49.548;9.730;2022-10-16T04:50:31;8.17;;;2.50;;
16735;SDS011;17990;49.548;9.730;2022-10-16T04:52:58;7.13;;;2.30;;
16735;SDS011;17990;49.548;9.730;2022-10-16T04:55:25;5.93;;;1.90;;
16735;SDS011;17990;49.548;9.730;2022-10-16T04:57:52;6.93;;;2.00;;
16735;SDS011;17990;49.548;9.730;2022-10-16T05:00:20;4.47;;;1.60;;
16735;SDS011;17990;49.548;9.730;2022-10-16T05:02:49;5.63;;;1.80;;
16735;SDS011;17990;49.548;9.730;2022-10-16T05:05:16;2.73;;;1.40;;
16735;SDS011;17990;49.548;9.730;2022-10-16T05:07:44;3.23;;;1.47;;
16735;SDS011;17990;49.548;9.730;2022-10-16T05:10:11;6.50;;;1.90;;
16735;SDS011;17990;49.548;9.730;2022-10-16T05:12:38;3.37;;;1.40;;
16735;SDS011;17990;49.548;9.730;2022-10-16T05:15:05;5.70;;;1.73;;
16735;SDS011;17990;49.548;9.730;2022-10-16T05:17:34;3.83;;;1.70;;
16735;SDS011;17990;49.548;9.730;2022-10-16T05:20:02;4.63;;;1.97;;
16735;SDS011;17990;49.548;9.730;2022-10-16T05:22:30;6.67;;;2.30;;
16735;SDS011;17990;49.548;9.730;2022-10-16T05:24:56;3.57;;;1.60;;
16735;SDS011;17990;49.548;9.730;2022-10-16T05:27:23;2.90;;;1.90;;
16735;SDS011;17990;49.548;9.730;2022-10-16T05:29:50;9.13;;;2.00;;
16735;SDS011;17990;49.548;9.730;2022-10-16T05:32:17;5.57;;;1.90;;
16735;SDS011;17990;49.548;9.730;2022-10-16T05:34:46;2.60;;;1.60;;
16735;SDS011;17990;49.548;9.730;2022-10-16T05:37:13;5.60;;;1.50;;
16735;SDS011;17990;49.548;9.730;2022-10-16T05:39:40;4.03;;;2.00;;
16735;SDS011;17990;49.548;9.730;2022-10-16T05:42:07;4.07;;;1.87;;
16735;SDS011;17990;49.548;9.730;2022-10-16T05:44:34;6.03;;;2.03;;
16735;SDS011;17990;49.548;9.730;2022-10-16T05:47:01;4.23;;;1.83;;
16735;SDS011;17990;49.548;9.730;2022-10-16T05:49:28;5.73;;;1.80;;
16735;SDS011;17990;49.548;9.730;2022-10-16T05:51:56;5.53;;;2.00;;
16735;SDS011;17990;49.548;9.730;2022-10-16T05:54:23;3.77;;;2.10;;
16735;SDS011;17990;49.548;9.730;2022-10-16T05:56:50;8.80;;;2.80;;
16735;SDS011;17990;49.548;9.730;2022-10-16T05:59:16;2.63;;;2.03;;
16735;SDS011;17990;49.548;9.730;2022-10-16T06:01:43;3.83;;;2.40;;
16735;SDS011;17990;49.548;9.730;2022-10-16T06:04:10;5.50;;;2.20;;
16735;SDS011;17990;49.548;9.730;2022-10-16T06:06:37;8.03;;;1.97;;
16735;SDS011;17990;49.548;9.730;2022-10-16T06:09:05;6.10;;;2.10;;
16735;SDS011;17990;49.548;9.730;2022-10-16T06:11:32;4.93;;;2.13;;
16735;SDS011;17990;49.548;9.730;2022-10-16T06:14:00;4.40;;;2.10;;
16735;SDS011;17990;49.548;9.730;2022-10-16T06:16:31;10.80;;;2.93;;
16735;SDS011;17990;49.548;9.730;2022-10-16T06:18:59;7.07;;;4.20;;
16735;SDS011;17990;49.548;9.730;2022-10-16T06:21:27;10.83;;;3.80;;
16735;SDS011;17990;49.548;9.730;2022-10-16T06:23:55;6.97;;;3.70;;
16735;SDS011;17990;49.548;9.730;2022-10-16T06:26:25;9.50;;;5.47;;
16735;SDS011;17990;49.548;9.730;2022-10-16T06:28:54;8.80;;;4.90;;
16735;SDS011;17990;49.548;9.730;2022-10-16T06:31:22;7.27;;;4.30;;
16735;SDS011;17990;49.548;9.730;2022-10-16T06:33:52;4.03;;;2.90;;
16735;SDS011;17990;49.548;9.730;2022-10-16T06:36:21;8.27;;;6.20;;
16735;SDS011;17990;49.548;9.730;2022-10-16T06:38:48;5.17;;;3.30;;
16735;SDS011;17990;49.548;9.730;2022-10-16T06:41:15;13.13;;;3.17;;
16735;SDS011;17990;49.548;9.730;2022-10-16T06:43:46;4.40;;;2.57;;
16735;SDS011;17990;49.548;9.730;2022-10-16T06:46:14;6.37;;;2.30;;
16735;SDS011;17990;49.548;9.730;2022-10-16T06:48:43;4.53;;;2.00;;
16735;SDS011;17990;49.548;9.730;2022-10-16T06:51:11;6.73;;;2.13;;
16735;SDS011;17990;49.548;9.730;2022-10-16T06:53:41;7.27;;;2.23;;
16735;SDS011;17990;49.548;9.730;2022-10-16T06:56:10;5.73;;;2.60;;
16735;SDS011;17990;49.548;9.730;2022-10-16T06:58:39;4.63;;;1.97;;
16735;SDS011;17990;49.548;9.730;2022-10-16T07:01:08;3.90;;;2.10;;
16735;SDS011;17990;49.548;9.730;2022-10-16T07:03:37;6.00;;;2.17;;
16735;SDS011;17990;49.548;9.730;2022-10-16T07:06:05;7.83;;;2.10;;
16735;SDS011;17990;49.548;9.730;2022-10-16T07:08:35;4.90;;;2.10;;
16735;SDS011;17990;49.548;9.730;2022-10-16T07:11:05;8.40;;;2.97;;
16735;SDS011;17990;49.548;9.730;2022-10-16T07:13:34;4.40;;;2.07;;
16735;SDS011;17990;49.548;9.730;2022-10-16T07:16:03;6.43;;;1.83;;
16735;SDS011;17990;49.548;9.730;2022-10-16T07:18:33;3.80;;;1.40;;
16735;SDS011;17990;49.548;9.730;2022-10-16T07:21:05;5.83;;;2.00;;
16735;SDS011;17990;49.548;9.730;2022-10-16T07:23:33;4.73;;;1.90;;
16735;SDS011;17990;49.548;9.730;2022-10-16T07:26:00;3.23;;;2.13;;
16735;SDS011;17990;49.548;9.730;2022-10-16T07:28:27;5.37;;;2.30;;
16735;SDS011;17990;49.548;9.730;2022-10-16T07:30:55;3.77;;;2.70;;
16735;SDS011;17990;49.548;9.730;2022-10-16T07:33:22;4.20;;;2.50;;
16735;SDS011;17990;49.548;9.730;2022-10-16T07:35:51;8.43;;;2.60;;
16735;SDS011;17990;49.548;9.730;2022-10-16T07:38:20;4.63;;;2.30;;
16735;SDS011;17990;49.548;9.730;2022-10-16T07:40:47;7.70;;;2.30;;
16735;SDS011;17990;49.548;9.730;2022-10-16T07:43:21;3.83;;;1.93;;
16735;SDS011;17990;49.548;9.730;2022-10-16T07:45:48;8.03;;;2.20;;
16735;SDS011;17990;49.548;9.730;2022-10-16T07:48:16;4.27;;;1.73;;
16735;SDS011;17990;49.548;9.730;2022-10-16T07:50:44;4.77;;;2.33;;
16735;SDS011;17990;49.548;9.730;2022-10-16T07:53:13;12.97;;;7.17;;
16735;SDS011;17990;49.548;9.730;2022-10-16T07:55:40;11.10;;;4.97;;
16735;SDS011;17990;49.548;9.730;2022-10-16T07:58:08;6.47;;;3.80;;
16735;SDS011;17990;49.548;9.730;2022-10-16T08:00:35;9.10;;;4.53;;
16735;SDS011;17990;49.548;9.730;2022-10-16T08:03:03;6.07;;;2.50;;
16735;SDS011;17990;49.548;9.730;2022-10-16T08:05:31;5.40;;;2.80;;
16735;SDS011;17990;49.548;9.730;2022-10-16T08:07:59;6.70;;;2.47;;
16735;SDS011;17990;49.548;9.730;2022-10-16T08:10:29;5.80;;;2.50;;
16735;SDS011;17990;49.548;9.730;2022-10-16T08:12:56;2.67;;;1.83;;
16735;SDS011;17990;49.548;9.730;2022-10-16T08:15:24;3.93;;;1.77;;
16735;SDS011;17990;49.548;9.730;2022-10-16T08:17:55;4.70;;;2.23;;
16735;SDS011;17990;49.548;9.730;2022-10-16T08:20:24;6.03;;;1.43;;
16735;SDS011;17990;49.548;9.730;2022-10-16T08:22:51;7.83;;;1.70;;
16735;SDS011;17990;49.548;9.730;2022-10-16T08:25:19;3.67;;;1.50;;
16735;SDS011;17990;49.548;9.730;2022-10-16T08:27:47;3.03;;;1.70;;
16735;SDS011;17990;49.548;9.730;2022-10-16T08:30:15;5.30;;;1.90;;
16735;SDS011;17990;49.548;9.730;2022-10-16T08:32:43;5.13;;;1.73;;
16735;SDS011;17990;49.548;9.730;2022-10-16T08:35:11;5.40;;;1.37;;
16735;SDS011;17990;49.548;9.730;2022-10-16T08:37:39;3.07;;;1.87;;
16735;SDS011;17990;49.548;9.730;2022-10-16T08:40:12;5.00;;;2.97;;
16735;SDS011;17990;49.548;9.730;2022-10-16T08:43:03;4.47;;;2.37;;
16735;SDS011;17990;49.548;9.730;2022-10-16T08:45:52;2.87;;;1.80;;
16735;SDS011;17990;49.548;9.730;2022-10-16T08:48:40;8.97;;;5.23;;
16735;SDS011;17990;49.548;9.730;2022-10-16T08:51:14;7.07;;;3.57;;
16735;SDS011;17990;49.548;9.730;2022-10-16T08:53:49;11.90;;;8.10;;
16735;SDS011;17990;49.548;9.730;2022-10-16T08:56:20;13.63;;;9.07;;
16735;SDS011;17990;49.548;9.730;2022-10-16T08:58:49;18.20;;;10.33;;
16735;SDS011;17990;49.548;9.730;2022-10-16T09:01:19;15.47;;;8.30;;
16735;SDS011;17990;49.548;9.730;2022-10-16T09:03:52;21.77;;;13.70;;
16735;SDS011;17990;49.548;9.730;2022-10-16T09:06:40;13.13;;;6.97;;
16735;SDS011;17990;49.548;9.730;2022-10-16T09:09:18;5.77;;;3.13;;
16735;SDS011;17990;49.548;9.730;2022-10-16T09:12:06;6.80;;;3.13;;
16735;SDS011;17990;49.548;9.730;2022-10-16T09:14:43;5.23;;;2.13;;
16735;SDS011;17990;49.548;9.730;2022-10-16T09:17:34;2.90;;;2.00;;
16735;SDS011;17990;49.548;9.730;2022-10-16T09:20:18;4.90;;;2.17;;
16735;SDS011;17990;49.548;9.730;2022-10-16T09:22:55;7.28;;;2.10;;
16735;SDS011;17990;49.548;9.730;2022-10-16T09:25:39;5.28;;;2.05;;
16735;SDS011;17990;49.548;9.730;2022-10-16T09:28:12;2.22;;;1.00;;
16735;SDS011;17990;49.548;9.730;2022-10-16T09:30:41;4.28;;;1.48;;
16735;SDS011;17990;49.548;9.730;2022-10-16T09:33:09;2.90;;;1.30;;
16735;SDS011;17990;49.548;9.730;2022-10-16T09:35:38;2.28;;;1.30;;
16735;SDS011;17990;49.548;9.730;2022-10-16T09:38:08;3.22;;;1.90;;
16735;SDS011;17990;49.548;9.730;2022-10-16T09:40:47;7.15;;;4.90;;
16735;SDS011;17990;49.548;9.730;2022-10-16T09:43:18;2.33;;;2.00;;
16735;SDS011;17990;49.548;9.730;2022-10-16T09:45:57;1.77;;;1.33;;
16735;SDS011;17990;49.548;9.730;2022-10-16T09:48:27;1.77;;;1.00;;
16735;SDS011;17990;49.548;9.730;2022-10-16T09:51:00;2.45;;;1.02;;
16735;SDS011;17990;49.548;9.730;2022-10-16T09:53:37;8.60;;;1.48;;
16735;SDS011;17990;49.548;9.730;2022-10-16T09:56:06;4.00;;;2.40;;
16735;SDS011;17990;49.548;9.730;2022-10-16T09:58:41;2.40;;;1.92;;
16735;SDS011;17990;49.548;9.730;2022-10-16T10:01:11;3.03;;;1.80;;
16735;SDS011;17990;49.548;9.730;2022-10-16T10:03:41;1.30;;;0.90;;
16735;SDS011;17990;49.548;9.730;2022-10-16T10:06:21;3.88;;;1.60;;
16735;SDS011;17990;49.548;9.730;2022-10-16T10:08:54;2.78;;;1.55;;
16735;SDS011;17990;49.548;9.730;2022-10-16T10:11:36;6.22;;;1.10;;
16735;SDS011;17990;49.548;9.730;2022-10-16T10:14:13;4.35;;;1.90;;
16735;SDS011;17990;49.548;9.730;2022-10-16T10:17:07;3.97;;;1.17;;
16735;SDS011;17990;49.548;9.730;2022-10-16T10:19:39;3.78;;;0.98;;
16735;SDS011;17990;49.548;9.730;2022-10-16T10:22:16;2.45;;;0.68;;
16735;SDS011;17990;49.548;9.730;2022-10-16T10:24:54;2.08;;;0.88;;
16735;SDS011;17990;49.548;9.730;2022-10-16T10:27:23;4.55;;;1.13;;
16735;SDS011;17990;49.548;9.730;2022-10-16T10:30:00;9.20;;;3.88;;
16735;SDS011;17990;49.548;9.730;2022-10-16T10:32:37;4.68;;;1.35;;
16735;SDS011;17990;49.548;9.730;2022-10-16T10:35:16;1.35;;;0.80;;
16735;SDS011;17990;49.548;9.730;2022-10-16T10:37:51;3.42;;;1.38;;
16735;SDS011;17990;49.548;9.730;2022-10-16T10:40:38;2.45;;;0.98;;
16735;SDS011;17990;49.548;9.730;2022-10-16T10:43:17;5.60;;;1.10;;
16735;SDS011;17990;49.548;9.730;2022-10-16T10:46:04;5.47;;;2.17;;
16735;SDS011;17990;49.548;9.730;2022-10-16T10:48:46;3.58;;;1.10;;
16735;SDS011;17990;49.548;9.730;2022-10-16T10:51:31;9.05;;;1.65;;
16735;SDS011;17990;49.548;9.730;2022-10-16T10:54:13;3.40;;;1.02;;
16735;SDS011;17990;49.548;9.730;2022-10-16T10:56:47;5.82;;;2.13;;
16735;SDS011;17990;49.548;9.730;2022-10-16T11:02:30;4.15;;;1.10;;
16735;SDS011;17990;49.548;9.730;2022-10-16T11:05:13;2.85;;;0.95;;
16735;SDS011;17990;49.548;9.730;2022-10-16T11:07:55;4.38;;;1.25;;
16735;SDS011;17990;49.548;9.730;2022-10-16T11:10:26;2.55;;;0.90;;
16735;SDS011;17990;49.548;9.730;2022-10-16T11:13:02;5.70;;;0.90;;
16735;SDS011;17990;49.548;9.730;2022-10-16T11:15:48;4.00;;;1.23;;
16735;SDS011;17990;49.548;9.730;2022-10-16T11:18:19;2.28;;;1.00;;
16735;SDS011;17990;49.548;9.730;2022-10-16T11:20:53;3.28;;;0.90;;
16735;SDS011;17990;49.548;9.730;2022-10-16T11:23:25;4.90;;;1.10;;
16735;SDS011;17990;49.548;9.730;2022-10-16T11:25:56;4.18;;;0.73;;
16735;SDS011;17990;49.548;9.730;2022-10-16T11:28:29;6.25;;;0.93;;
16735;SDS011;17990;49.548;9.730;2022-10-16T11:31:02;4.93;;;1.10;;
16735;SDS011;17990;49.548;9.730;2022-10-16T11:33:37;3.08;;;1.10;;
16735;SDS011;17990;49.548;9.730;2022-10-16T11:36:11;7.53;;;4.00;;
16735;SDS011;17990;49.548;9.730;2022-10-16T11:38:43;7.53;;;3.95;;
16735;SDS011;17990;49.548;9.730;2022-10-16T11:41:18;3.80;;;1.00;;
16735;SDS011;17990;49.548;9.730;2022-10-16T11:43:53;3.67;;;1.23;;
16735;SDS011;17990;49.548;9.730;2022-10-16T11:46:39;6.85;;;1.70;;
16735;SDS011;17990;49.548;9.730;2022-10-16T11:49:11;2.15;;;1.20;;
16735;SDS011;17990;49.548;9.730;2022-10-16T11:51:45;8.15;;;1.40;;
16735;SDS011;17990;49.548;9.730;2022-10-16T11:54:20;4.65;;;1.20;;
16735;SDS011;17990;49.548;9.730;2022-10-16T11:56:55;2.08;;;0.98;;
16735;SDS011;17990;49.548;9.730;2022-10-16T11:59:29;4.43;;;1.13;;
16735;SDS011;17990;49.548;9.730;2022-10-16T12:02:11;4.78;;;1.52;;
16735;SDS011;17990;49.548;9.730;2022-10-16T12:05:06;13.48;;;7.63;;
16735;SDS011;17990;49.548;9.730;2022-10-16T12:07:48;10.90;;;6.20;;
16735;SDS011;17990;49.548;9.730;2022-10-16T12:10:27;4.05;;;1.58;;
16735;SDS011;17990;49.548;9.730;2022-10-16T12:12:56;4.40;;;1.40;;
16735;SDS011;17990;49.548;9.730;2022-10-16T12:15:24;4.47;;;0.90;;
16735;SDS011;17990;49.548;9.730;2022-10-16T12:17:53;3.78;;;1.15;;
16735;SDS011;17990;49.548;9.730;2022-10-16T12:20:22;4.93;;;2.30;;
16735;SDS011;17990;49.548;9.730;2022-10-16T12:22:56;5.63;;;1.35;;
16735;SDS011;17990;49.548;9.730;2022-10-16T12:25:28;5.45;;;1.10;;
16735;SDS011;17990;49.548;9.730;2022-10-16T12:27:58;4.70;;;2.75;;
16735;SDS011;17990;49.548;9.730;2022-10-16T12:30:31;3.08;;;1.10;;
16735;SDS011;17990;49.548;9.730;2022-10-16T12:33:02;7.88;;;1.00;;
16735;SDS011;17990;49.548;9.730;2022-10-16T12:35:33;1.23;;;0.95;;
16735;SDS011;17990;49.548;9.730;2022-10-16T12:38:16;7.78;;;1.92;;
16735;SDS011;17990;49.548;9.730;2022-10-16T12:40:46;5.75;;;2.83;;
16735;SDS011;17990;49.548;9.730;2022-10-16T12:43:34;3.42;;;0.80;;
16735;SDS011;17990;49.548;9.730;2022-10-16T12:46:05;3.22;;;1.00;;
16735;SDS011;17990;49.548;9.730;2022-10-16T12:48:50;7.32;;;1.00;;
16735;SDS011;17990;49.548;9.730;2022-10-16T12:51:22;2.33;;;0.70;;
16735;SDS011;17990;49.548;9.730;2022-10-16T12:53:59;1.85;;;1.00;;
16735;SDS011;17990;49.548;9.730;2022-10-16T12:56:31;2.35;;;0.80;;
16735;SDS011;17990;49.548;9.730;2022-10-16T12:59:13;4.00;;;0.90;;
16735;SDS011;17990;49.548;9.730;2022-10-16T13:01:56;3.88;;;1.00;;
16735;SDS011;17990;49.548;9.730;2022-10-16T13:04:50;5.75;;;1.10;;
16735;SDS011;17990;49.548;9.730;2022-10-16T13:07:48;4.55;;;0.95;;
16735;SDS011;17990;49.548;9.730;2022-10-16T13:10:28;2.08;;;0.80;;
16735;SDS011;17990;49.548;9.730;2022-10-16T13:13:19;2.55;;;0.93;;
16735;SDS011;17990;49.548;9.730;2022-10-16T13:16:07;2.40;;;0.70;;
16735;SDS011;17990;49.548;9.730;2022-10-16T13:18:45;2.65;;;0.82;;
16735;SDS011;17990;49.548;9.730;2022-10-16T13:21:28;4.72;;;1.10;;
16735;SDS011;17990;49.548;9.730;2022-10-16T13:24:08;4.68;;;1.00;;
16735;SDS011;17990;49.548;9.730;2022-10-16T13:26:52;2.47;;;0.93;;
16735;SDS011;17990;49.548;9.730;2022-10-16T13:29:23;5.90;;;2.20;;
16735;SDS011;17990;49.548;9.730;2022-10-16T13:31:56;7.18;;;2.85;;
16735;SDS011;17990;49.548;9.730;2022-10-16T13:34:24;6.47;;;3.72;;
16735;SDS011;17990;49.548;9.730;2022-10-16T13:36:52;5.80;;;3.20;;
16735;SDS011;17990;49.548;9.730;2022-10-16T13:39:23;6.82;;;3.90;;
16735;SDS011;17990;49.548;9.730;2022-10-16T13:42:03;8.40;;;5.95;;
16735;SDS011;17990;49.548;9.730;2022-10-16T13:44:35;9.95;;;4.88;;
16735;SDS011;17990;49.548;9.730;2022-10-16T13:47:10;3.97;;;2.40;;
16735;SDS011;17990;49.548;9.730;2022-10-16T13:49:43;4.78;;;1.35;;
16735;SDS011;17990;49.548;9.730;2022-10-16T13:52:17;1.65;;;1.10;;
16735;SDS011;17990;49.548;9.730;2022-10-16T13:54:46;2.25;;;1.33;;
16735;SDS011;17990;49.548;9.730;2022-10-16T13:57:15;2.38;;;0.77;;
16735;SDS011;17990;49.548;9.730;2022-10-16T13:59:43;4.22;;;2.20;;
16735;SDS011;17990;49.548;9.730;2022-10-16T14:02:15;1.40;;;1.15;;
16735;SDS011;17990;49.548;9.730;2022-10-16T14:04:47;4.43;;;1.27;;
16735;SDS011;17990;49.548;9.730;2022-10-16T14:07:17;2.67;;;1.45;;
16735;SDS011;17990;49.548;9.730;2022-10-16T14:09:47;5.82;;;1.50;;
16735;SDS011;17990;49.548;9.730;2022-10-16T14:12:17;1.20;;;1.08;;
16735;SDS011;17990;49.548;9.730;2022-10-16T14:14:45;3.97;;;1.00;;
16735;SDS011;17990;49.548;9.730;2022-10-16T14:17:14;1.98;;;0.90;;
16735;SDS011;17990;49.548;9.730;2022-10-16T14:19:46;2.15;;;0.80;;
16735;SDS011;17990;49.548;9.730;2022-10-16T14:22:23;3.35;;;1.15;;
16735;SDS011;17990;49.548;9.730;2022-10-16T14:24:56;3.47;;;1.02;;
16735;SDS011;17990;49.548;9.730;2022-10-16T14:27:26;2.42;;;0.98;;
16735;SDS011;17990;49.548;9.730;2022-10-16T14:30:12;2.08;;;0.93;;
16735;SDS011;17990;49.548;9.730;2022-10-16T14:32:52;2.80;;;1.20;;
16735;SDS011;17990;49.548;9.730;2022-10-16T14:35:22;9.57;;;6.68;;
16735;SDS011;17990;49.548;9.730;2022-10-16T14:37:52;4.75;;;1.75;;
16735;SDS011;17990;49.548;9.730;2022-10-16T14:40:20;3.83;;;1.17;;
16735;SDS011;17990;49.548;9.730;2022-10-16T14:42:51;3.92;;;1.50;;
16735;SDS011;17990;49.548;9.730;2022-10-16T14:45:19;5.85;;;2.25;;
16735;SDS011;17990;49.548;9.730;2022-10-16T14:47:49;2.88;;;2.60;;
16735;SDS011;17990;49.548;9.730;2022-10-16T14:50:18;4.93;;;2.38;;
16735;SDS011;17990;49.548;9.730;2022-10-16T14:52:46;6.25;;;3.97;;
16735;SDS011;17990;49.548;9.730;2022-10-16T14:55:13;6.63;;;4.40;;
16735;SDS011;17990;49.548;9.730;2022-10-16T14:57:40;7.13;;;2.78;;
16735;SDS011;17990;49.548;9.730;2022-10-16T15:00:13;5.68;;;1.90;;
16735;SDS011;17990;49.548;9.730;2022-10-16T15:02:44;5.55;;;1.40;;
16735;SDS011;17990;49.548;9.730;2022-10-16T15:05:13;6.10;;;1.50;;
16735;SDS011;17990;49.548;9.730;2022-10-16T15:07:43;6.95;;;1.42;;
16735;SDS011;17990;49.548;9.730;2022-10-16T15:10:11;5.78;;;1.50;;
16735;SDS011;17990;49.548;9.730;2022-10-16T15:12:39;6.95;;;2.60;;
16735;SDS011;17990;49.548;9.730;2022-10-16T15:15:26;5.85;;;3.55;;
16735;SDS011;17990;49.548;9.730;2022-10-16T15:18:03;10.70;;;6.80;;